aviador You're here:

KAOO Decoded Metar

ALTOONA in PA, USA
Report Time2017-08-16 18:53:00
UTC Time2017-08-16 19:33:50
Flight Rules vfr VFR
WindVRB at 04 kt
Visibility9999 m
Phenomena:N/A
Clouds:Scattered 060 Hf
Expected CloudBase > 4,400 ft AGL from Temp-Dew spread
CeilingNone
Temp27°C (ISA +15)
Dew Point16°C (51% RH)
Heat Index27.5°C
QNH1018 hPa
Density Alt3,294 ft
Elevation1,493 ft
Report Wrong Elevation
Raw Report
METAR KAOO 161853Z AUTO VRB04KT 10SM SCT060 27/16 A3007 RMK AO2 SLP170
T02670156=

Extra information for KAOO:More info

Metar Taf Metar & Taf Last 4 Metars F.Rules Stats Wind Profile Meteogram Temp Stats Airport Information Weather charts Add Link Nearby VenuesMetar ALERT Operation Metar Decoded Social comments

AIRNAV info for KAOO